createdAt,value
2019-02-27T00:01:49.971Z,7.70
2019-02-27T00:04:20.638Z,8.50
2019-02-27T00:06:48.521Z,7.33
2019-02-27T00:09:16.133Z,7.30
2019-02-27T00:11:46.715Z,7.00
2019-02-27T00:14:14.338Z,7.57
2019-02-27T00:16:44.602Z,6.73
2019-02-27T00:19:11.641Z,7.07
2019-02-27T00:21:40.927Z,7.50
2019-02-27T00:24:08.826Z,7.93
2019-02-27T00:26:39.549Z,7.67
2019-02-27T00:29:06.924Z,7.20
2019-02-27T00:31:34.611Z,6.57
2019-02-27T00:34:02.274Z,6.83
2019-02-27T00:36:29.902Z,6.43
2019-02-27T00:38:57.912Z,7.13
2019-02-27T00:41:28.194Z,6.70
2019-02-27T00:43:55.810Z,6.97
2019-02-27T00:46:23.616Z,6.30
2019-02-27T00:48:51.241Z,6.80
2019-02-27T00:51:20.937Z,5.97
2019-02-27T00:53:48.764Z,6.43
2019-02-27T00:56:16.465Z,6.60
2019-02-27T00:58:47.202Z,6.00
2019-02-27T01:01:14.981Z,6.03
2019-02-27T01:03:42.632Z,7.07
2019-02-27T01:06:12.252Z,6.23
2019-02-27T01:08:40.094Z,6.43
2019-02-27T01:11:07.786Z,7.23
2019-02-27T01:13:35.431Z,6.33
2019-02-27T01:16:03.145Z,6.00
2019-02-27T01:18:31.410Z,5.43
2019-02-27T01:20:59.121Z,6.33
2019-02-27T01:23:28.681Z,6.00
2019-02-27T01:25:57.101Z,6.40
2019-02-27T01:28:24.814Z,6.67
2019-02-27T01:30:52.649Z,6.10
2019-02-27T01:33:20.452Z,6.17
2019-02-27T01:35:51.268Z,6.73
2019-02-27T01:38:17.684Z,6.03
2019-02-27T01:40:45.369Z,5.77
2019-02-27T01:43:12.996Z,6.07
2019-02-27T01:45:40.696Z,6.63
2019-02-27T01:48:10.576Z,6.00
2019-02-27T01:50:40.464Z,5.87
2019-02-27T01:53:08.829Z,6.10
2019-02-27T01:55:36.497Z,5.47
2019-02-27T01:58:09.181Z,5.20
2019-02-27T02:00:34.745Z,5.63
2019-02-27T02:03:05.309Z,5.50
2019-02-27T02:05:35.112Z,5.43
2019-02-27T02:08:02.904Z,5.10
2019-02-27T02:10:31.323Z,5.77
2019-02-27T02:13:15.176Z,5.70
2019-02-27T02:16:19.681Z,6.23
2019-02-27T02:19:22.022Z,5.63
2019-02-27T02:22:35.609Z,5.30
2019-02-27T02:25:46.329Z,5.67
2019-02-27T02:28:48.232Z,5.20
2019-02-27T02:31:43.082Z,5.83
2019-02-27T02:34:42.861Z,5.47
2019-02-27T02:37:42.538Z,6.27
2019-02-27T02:40:59.840Z,5.47
2019-02-27T02:43:48.036Z,6.67
2019-02-27T02:46:52.679Z,6.87
2019-02-27T02:49:47.750Z,6.00
2019-02-27T02:52:44.796Z,5.60
2019-02-27T02:55:49.099Z,6.93
2019-02-27T02:58:48.793Z,6.40
2019-02-27T03:01:38.072Z,6.57
2019-02-27T03:04:47.916Z,6.33
2019-02-27T03:07:44.721Z,6.43
2019-02-27T03:10:30.021Z,6.60
2019-02-27T03:13:41.663Z,5.57
2019-02-27T03:16:34.014Z,6.03
2019-02-27T03:19:26.389Z,6.90
2019-02-27T03:22:18.062Z,5.90
2019-02-27T03:25:40.699Z,6.27
2019-02-27T03:28:43.025Z,6.13
2019-02-27T03:31:36.999Z,6.50
2019-02-27T03:34:55.372Z,6.83
2019-02-27T03:38:00.111Z,6.00
2019-02-27T03:41:12.046Z,6.72
2019-02-27T03:44:07.958Z,5.75
2019-02-27T03:46:45.294Z,6.35
2019-02-27T03:50:04.068Z,5.90
2019-02-27T03:53:14.645Z,5.47
2019-02-27T03:56:28.197Z,6.58
2019-02-27T03:59:52.435Z,6.03
2019-02-27T04:02:44.674Z,5.95
2019-02-27T04:05:43.617Z,5.95
2019-02-27T04:08:43.571Z,5.30
2019-02-27T04:11:08.038Z,5.75
2019-02-27T04:13:36.177Z,5.22
2019-02-27T04:16:06.682Z,5.55
2019-02-27T04:18:33.753Z,5.80
2019-02-27T04:21:05.041Z,5.62
2019-02-27T04:23:34.047Z,6.05
2019-02-27T04:26:05.347Z,5.55
2019-02-27T04:28:40.717Z,5.25
2019-02-27T04:31:38.617Z,5.83
2019-02-27T04:34:18.019Z,5.95
2019-02-27T04:36:52.812Z,5.90
2019-02-27T04:39:21.852Z,7.12
2019-02-27T04:41:51.871Z,6.28
2019-02-27T04:44:18.916Z,7.03
2019-02-27T04:46:46.538Z,8.65
2019-02-27T04:49:14.136Z,5.70
2019-02-27T04:51:44.292Z,6.33
2019-02-27T04:54:18.847Z,7.60
2019-02-27T04:56:47.647Z,6.97
2019-02-27T04:59:25.817Z,7.30
2019-02-27T05:02:03.764Z,7.33
2019-02-27T05:04:35.148Z,6.45
2019-02-27T05:07:02.345Z,6.40
2019-02-27T05:09:31.412Z,8.25
2019-02-27T05:11:59.751Z,6.78
2019-02-27T05:14:30.873Z,6.60
2019-02-27T05:16:59.645Z,6.92
2019-02-27T05:19:27.716Z,6.42
2019-02-27T05:21:55.619Z,6.17
2019-02-27T05:24:23.395Z,6.15
2019-02-27T05:26:51.118Z,6.67
2019-02-27T05:29:18.945Z,6.55
2019-02-27T05:31:50.177Z,6.53
2019-02-27T05:34:19.036Z,6.70
2019-02-27T05:36:46.699Z,5.83
2019-02-27T05:39:14.933Z,6.15
2019-02-27T05:42:06.143Z,6.00
2019-02-27T05:44:44.488Z,7.00
2019-02-27T05:47:13.011Z,8.00
2019-02-27T05:49:40.739Z,6.05
2019-02-27T05:52:15.098Z,6.20
2019-02-27T05:57:48.786Z,6.95
2019-02-27T06:00:21.113Z,6.10
2019-02-27T06:02:52.090Z,5.50
2019-02-27T06:05:21.809Z,5.75
2019-02-27T06:07:52.208Z,5.50
2019-02-27T06:10:23.793Z,5.20
2019-02-27T06:12:58.436Z,5.85
2019-02-27T06:15:32.194Z,5.50
2019-02-27T06:23:26.156Z,5.28
2019-02-27T06:25:59.153Z,4.87
2019-02-27T06:28:52.063Z,4.90
2019-02-27T06:32:12.351Z,5.65
2019-02-27T06:34:43.308Z,9.48
2019-02-27T06:37:23.344Z,6.28
2019-02-27T06:39:54.149Z,7.30
2019-02-27T06:42:22.486Z,6.78
2019-02-27T06:45:06.956Z,6.45
2019-02-27T06:47:50.651Z,6.33
2019-02-27T06:50:39.374Z,6.60
2019-02-27T06:53:25.004Z,7.22
2019-02-27T06:55:53.915Z,6.87
2019-02-27T06:58:56.166Z,6.65
2019-02-27T07:01:33.437Z,7.08
2019-02-27T07:04:04.823Z,6.75
2019-02-27T07:06:32.678Z,7.00
2019-02-27T07:09:03.382Z,6.27
2019-02-27T07:11:53.769Z,6.05
2019-02-27T07:14:39.850Z,6.08
2019-02-27T07:17:09.259Z,6.37
2019-02-27T07:19:37.570Z,5.87
2019-02-27T07:22:06.245Z,6.80
2019-02-27T07:24:35.476Z,6.07
2019-02-27T07:27:03.099Z,6.90
2019-02-27T07:29:30.867Z,7.27
2019-02-27T07:32:02.445Z,7.57
2019-02-27T07:34:34.566Z,8.20
2019-02-27T07:37:06.613Z,8.10
2019-02-27T07:39:34.357Z,7.63
2019-02-27T07:42:03.952Z,8.93
2019-02-27T07:44:34.733Z,7.47
2019-02-27T07:47:02.867Z,8.40
2019-02-27T07:49:41.371Z,8.53
2019-02-27T07:52:26.818Z,8.67
2019-02-27T07:54:54.529Z,8.27
2019-02-27T07:57:39.877Z,8.57
2019-02-27T08:03:20.203Z,9.53
2019-02-27T08:05:48.747Z,9.37
2019-02-27T08:08:17.910Z,8.47
2019-02-27T08:10:48.029Z,8.40
2019-02-27T08:13:18.946Z,8.97
2019-02-27T08:15:49.167Z,8.87
2019-02-27T08:18:27.100Z,9.03
2019-02-27T08:20:48.142Z,7.93
2019-02-27T08:23:43.350Z,8.57
2019-02-27T08:26:14.610Z,7.93
2019-02-27T08:28:46.350Z,7.83
2019-02-27T08:31:16.696Z,8.27
2019-02-27T08:33:58.911Z,8.10
2019-02-27T08:36:43.230Z,7.67
2019-02-27T08:39:16.205Z,7.70
2019-02-27T08:42:31.948Z,7.93
2019-02-27T08:48:03.144Z,8.30
2019-02-27T08:50:40.791Z,8.13
2019-02-27T08:53:12.945Z,7.87
2019-02-27T08:55:50.529Z,8.10
2019-02-27T08:58:28.928Z,7.83
2019-02-27T09:00:56.828Z,8.33
2019-02-27T09:03:28.488Z,7.83
2019-02-27T09:05:58.743Z,8.40
2019-02-27T09:08:36.101Z,8.00
2019-02-27T09:11:07.872Z,7.77
2019-02-27T09:13:46.020Z,8.40
2019-02-27T09:17:06.869Z,8.40
2019-02-27T09:20:03.508Z,8.27
2019-02-27T09:22:53.186Z,8.37
2019-02-27T09:25:44.041Z,8.53
2019-02-27T09:28:13.923Z,8.40
2019-02-27T09:30:45.754Z,7.70
2019-02-27T09:33:21.462Z,9.13
2019-02-27T09:36:04.520Z,8.83
2019-02-27T09:38:32.408Z,9.47
2019-02-27T09:41:02.858Z,9.17
2019-02-27T09:43:32.359Z,8.63
2019-02-27T09:46:03.003Z,7.73
2019-02-27T09:48:33.405Z,8.20
2019-02-27T09:51:24.181Z,8.23
2019-02-27T09:53:57.355Z,7.70
2019-02-27T09:56:50.197Z,8.47
2019-02-27T09:59:20.406Z,8.83
2019-02-27T10:01:52.634Z,7.60
2019-02-27T10:04:29.075Z,7.90
2019-02-27T10:07:07.041Z,7.50
2019-02-27T10:09:47.812Z,8.43
2019-02-27T10:12:19.039Z,7.67
2019-02-27T10:14:51.150Z,8.43
2019-02-27T10:17:24.813Z,8.17
2019-02-27T10:20:05.777Z,8.43
2019-02-27T10:22:35.053Z,8.83
2019-02-27T10:25:08.553Z,8.20
2019-02-27T10:27:43.772Z,8.47
2019-02-27T10:30:12.323Z,8.30
2019-02-27T10:32:39.986Z,17.60
2019-02-27T10:35:09.859Z,9.60
2019-02-27T10:37:40.149Z,8.80
2019-02-27T10:40:11.440Z,7.73
2019-02-27T10:42:49.708Z,8.90
2019-02-27T10:45:53.874Z,8.50
2019-02-27T10:48:36.712Z,7.83
2019-02-27T10:51:09.459Z,8.33
2019-02-27T10:53:44.642Z,8.90
2019-02-27T10:56:17.534Z,9.03
2019-02-27T10:58:48.231Z,7.40
2019-02-27T11:02:01.001Z,9.10
2019-02-27T11:04:45.494Z,8.27
2019-02-27T11:07:29.411Z,8.03
2019-02-27T11:13:44.531Z,9.10
2019-02-27T11:16:50.057Z,8.50
2019-02-27T11:20:00.358Z,9.37
2019-02-27T11:26:19.143Z,9.50
2019-02-27T11:28:51.765Z,9.97
2019-02-27T11:31:48.114Z,8.03
2019-02-27T11:34:22.811Z,8.83
2019-02-27T11:37:14.314Z,8.83
2019-02-27T11:40:05.373Z,8.40
2019-02-27T11:43:33.919Z,7.90
2019-02-27T11:46:43.660Z,7.57
2019-02-27T11:49:55.786Z,6.70
2019-02-27T11:52:28.638Z,5.70
2019-02-27T11:55:41.931Z,6.17
2019-02-27T11:58:45.369Z,6.03
2019-02-27T12:01:27.946Z,5.40
2019-02-27T12:11:52.036Z,4.70
2019-02-27T12:17:51.000Z,4.90
2019-02-27T12:20:28.752Z,5.57
2019-02-27T12:23:12.742Z,4.93
2019-02-27T12:26:37.478Z,4.70
2019-02-27T12:29:26.484Z,4.33
2019-02-27T12:32:09.940Z,4.47
2019-02-27T12:34:47.959Z,4.67
2019-02-27T12:37:34.777Z,4.20
2019-02-27T12:40:24.059Z,3.90
2019-02-27T12:42:49.892Z,4.07
2019-02-27T12:45:25.725Z,4.53
2019-02-27T12:51:25.471Z,4.30
2019-02-27T12:53:54.570Z,4.20
2019-02-27T12:56:24.126Z,4.17
2019-02-27T12:59:12.605Z,4.40
2019-02-27T13:02:17.259Z,4.47
2019-02-27T13:05:42.011Z,3.80
2019-02-27T13:08:13.583Z,3.90
2019-02-27T13:11:22.391Z,3.93
2019-02-27T13:14:07.980Z,4.07
2019-02-27T13:16:50.800Z,3.67
2019-02-27T13:19:34.097Z,3.77
2019-02-27T13:22:29.139Z,4.30
2019-02-27T13:24:56.482Z,10.93
2019-02-27T13:27:35.268Z,3.50
2019-02-27T13:30:15.462Z,4.43
2019-02-27T13:33:01.139Z,4.83
2019-02-27T13:35:46.342Z,4.03
2019-02-27T13:38:18.592Z,3.63
2019-02-27T13:40:47.871Z,4.30
2019-02-27T13:43:48.656Z,4.00
2019-02-27T13:46:32.968Z,4.10
2019-02-27T13:49:26.684Z,4.50
2019-02-27T13:55:33.250Z,4.53
2019-02-27T13:58:26.037Z,4.70
2019-02-27T14:01:45.845Z,5.13
2019-02-27T14:04:47.793Z,4.33
2019-02-27T14:07:42.917Z,4.77
2019-02-27T14:10:29.779Z,4.10
2019-02-27T14:13:01.797Z,4.40
2019-02-27T14:15:33.846Z,4.23
2019-02-27T14:18:02.787Z,4.17
2019-02-27T14:20:35.692Z,4.10
2019-02-27T14:23:21.868Z,3.80
2019-02-27T14:25:51.220Z,4.03
2019-02-27T14:28:30.315Z,4.37
2019-02-27T14:31:31.636Z,4.67
2019-02-27T14:37:16.191Z,4.90
2019-02-27T14:39:44.539Z,4.60
2019-02-27T14:45:20.074Z,4.60
2019-02-27T14:47:56.381Z,4.90
2019-02-27T14:53:58.713Z,4.67
2019-02-27T14:56:49.438Z,5.00
2019-02-27T14:59:36.703Z,4.97
2019-02-27T15:02:57.255Z,4.70
2019-02-27T15:05:43.088Z,4.30
2019-02-27T15:08:57.651Z,4.30
2019-02-27T15:25:42.214Z,3.73
2019-02-27T15:28:08.229Z,4.50
2019-02-27T15:30:57.777Z,4.27
2019-02-27T15:33:43.221Z,3.60
2019-02-27T15:36:21.800Z,4.27
2019-02-27T15:52:51.431Z,3.13
2019-02-27T15:55:47.664Z,4.20
2019-02-27T15:58:37.894Z,4.10
2019-02-27T16:01:18.780Z,3.53
2019-02-27T16:08:23.581Z,4.67
2019-02-27T16:11:22.139Z,3.80
2019-02-27T16:13:57.291Z,2.93
2019-02-27T16:16:34.693Z,2.90
2019-02-27T16:19:02.325Z,2.93
2019-02-27T16:21:48.410Z,3.00
2019-02-27T16:24:18.520Z,2.70
2019-02-27T16:26:46.755Z,3.30
2019-02-27T16:29:15.587Z,3.60
2019-02-27T16:31:57.800Z,4.17
2019-02-27T16:34:41.481Z,3.80
2019-02-27T16:38:31.316Z,4.50
2019-02-27T16:41:29.523Z,5.20
2019-02-27T16:44:02.158Z,3.80
2019-02-27T16:47:07.260Z,3.90
2019-02-27T16:50:02.633Z,3.53
2019-02-27T16:52:35.120Z,4.73
2019-02-27T16:55:09.980Z,4.30
2019-02-27T16:58:33.082Z,4.77
2019-02-27T17:01:19.333Z,5.03
2019-02-27T17:04:00.580Z,5.33
2019-02-27T17:07:25.828Z,4.90
2019-02-27T17:10:44.427Z,4.27
2019-02-27T17:13:15.484Z,5.10
2019-02-27T17:15:44.250Z,5.10
2019-02-27T17:18:17.173Z,5.37
2019-02-27T17:20:46.581Z,6.10
2019-02-27T17:23:15.471Z,5.77
2019-02-27T17:25:43.446Z,4.83
2019-02-27T17:28:44.417Z,5.60
2019-02-27T17:31:20.940Z,5.60
2019-02-27T17:34:13.475Z,6.17
2019-02-27T17:36:50.889Z,11.43
2019-02-27T17:39:22.257Z,18.83
2019-02-27T17:41:49.574Z,14.83
2019-02-27T17:44:37.792Z,13.83
2019-02-27T17:47:38.520Z,10.50
2019-02-27T17:50:15.642Z,8.43
2019-02-27T17:56:32.236Z,8.57
2019-02-27T17:59:01.194Z,9.97
2019-02-27T18:01:28.837Z,14.37
2019-02-27T18:04:31.576Z,12.77
2019-02-27T18:07:33.959Z,16.10
2019-02-27T18:10:07.290Z,15.60
2019-02-27T18:12:51.490Z,11.67
2019-02-27T18:15:28.857Z,13.43
2019-02-27T18:18:30.019Z,10.07
2019-02-27T18:21:50.952Z,7.00
2019-02-27T18:24:39.513Z,6.10
2019-02-27T18:27:25.401Z,6.30
2019-02-27T18:30:25.999Z,12.60
2019-02-27T18:37:22.317Z,11.73
2019-02-27T18:40:28.038Z,12.07
2019-02-27T18:42:58.513Z,12.10
2019-02-27T18:45:32.484Z,9.40
2019-02-27T18:48:10.079Z,9.87
2019-02-27T18:51:05.809Z,8.27
2019-02-27T18:53:34.762Z,9.50
2019-02-27T18:56:07.844Z,10.77
2019-02-27T18:58:36.638Z,8.67
2019-02-27T19:01:09.834Z,8.40
2019-02-27T19:03:39.788Z,7.33
2019-02-27T19:06:12.107Z,8.93
2019-02-27T19:09:07.945Z,11.63
2019-02-27T19:11:50.961Z,12.77
2019-02-27T19:15:04.110Z,9.13
2019-02-27T19:17:40.800Z,8.10
2019-02-27T19:20:13.444Z,8.00
2019-02-27T19:23:00.273Z,8.47
2019-02-27T19:26:10.056Z,8.20
2019-02-27T19:29:10.175Z,8.23
2019-02-27T19:31:51.639Z,7.10
2019-02-27T19:34:22.772Z,6.50
2019-02-27T19:37:14.593Z,7.93
2019-02-27T19:39:45.147Z,7.23
2019-02-27T19:42:17.281Z,8.03
2019-02-27T19:45:07.994Z,7.90
2019-02-27T19:47:54.524Z,12.00
2019-02-27T19:50:25.331Z,9.30
2019-02-27T19:53:17.267Z,8.90
2019-02-27T19:55:46.228Z,7.87
2019-02-27T19:58:30.845Z,7.47
2019-02-27T20:01:31.491Z,7.13
2019-02-27T20:04:08.995Z,8.13
2019-02-27T20:06:51.324Z,7.17
2019-02-27T20:16:38.321Z,9.93
2019-02-27T20:19:22.578Z,8.63
2019-02-27T20:21:51.453Z,9.37
2019-02-27T20:24:20.126Z,8.53
2019-02-27T20:27:05.320Z,8.87
2019-02-27T20:29:39.452Z,8.80
2019-02-27T20:32:03.808Z,8.47
2019-02-27T20:34:35.001Z,7.93
2019-02-27T20:37:08.914Z,8.63
2019-02-27T20:39:38.906Z,9.03
2019-02-27T20:42:07.154Z,8.40
2019-02-27T20:44:48.991Z,8.20
2019-02-27T20:47:16.695Z,8.77
2019-02-27T20:49:47.802Z,7.93
2019-02-27T20:52:21.987Z,8.50
2019-02-27T20:54:52.889Z,8.03
2019-02-27T20:58:02.357Z,7.80
2019-02-27T21:00:47.739Z,7.60
2019-02-27T21:03:15.307Z,9.03
2019-02-27T21:05:44.406Z,10.40
2019-02-27T21:08:13.278Z,8.87
2019-02-27T21:10:42.577Z,9.23
2019-02-27T21:13:17.669Z,9.23
2019-02-27T21:15:49.489Z,9.03
2019-02-27T21:18:19.546Z,8.53
2019-02-27T21:20:50.849Z,8.33
2019-02-27T21:23:19.354Z,7.83
2019-02-27T21:28:44.657Z,7.93
2019-02-27T21:31:17.399Z,8.53
2019-02-27T21:33:46.554Z,7.90
2019-02-27T21:36:19.253Z,8.23
2019-02-27T21:38:47.531Z,8.13
2019-02-27T21:41:28.952Z,8.53
2019-02-27T21:44:25.275Z,7.73
2019-02-27T21:46:49.806Z,7.67
2019-02-27T21:49:18.649Z,6.83
2019-02-27T21:51:50.451Z,7.07
2019-02-27T21:54:19.869Z,7.07
2019-02-27T21:56:52.569Z,7.93
2019-02-27T21:59:20.778Z,8.53
2019-02-27T22:02:18.588Z,8.00
2019-02-27T22:04:46.198Z,8.03
2019-02-27T22:07:15.216Z,8.63
2019-02-27T22:09:45.511Z,8.10
2019-02-27T22:12:20.723Z,7.57
2019-02-27T22:14:51.611Z,7.70
2019-02-27T22:17:23.305Z,7.77
2019-02-27T22:20:14.036Z,7.90
2019-02-27T22:22:42.387Z,8.00
2019-02-27T22:25:10.917Z,8.73
2019-02-27T22:27:49.935Z,7.80
2019-02-27T22:30:17.849Z,7.67
2019-02-27T22:32:48.843Z,8.30
2019-02-27T22:35:19.569Z,7.83
2019-02-27T22:37:52.392Z,8.60
2019-02-27T22:40:19.729Z,8.37
2019-02-27T22:42:48.623Z,8.27
2019-02-27T22:45:21.534Z,8.77
2019-02-27T22:47:53.865Z,8.10
2019-02-27T22:50:22.493Z,7.50
2019-02-27T22:52:59.330Z,8.17
2019-02-27T22:55:31.066Z,8.30
2019-02-27T22:58:01.154Z,7.50
2019-02-27T23:01:03.841Z,7.63
2019-02-27T23:03:54.992Z,8.27
2019-02-27T23:06:23.458Z,8.63
2019-02-27T23:08:54.424Z,8.40
2019-02-27T23:11:25.079Z,8.47
2019-02-27T23:13:53.045Z,7.97
2019-02-27T23:16:29.728Z,7.97
2019-02-27T23:19:03.161Z,8.30
2019-02-27T23:21:58.501Z,8.80
2019-02-27T23:24:38.101Z,9.10
2019-02-27T23:27:16.359Z,8.53
2019-02-27T23:32:39.913Z,8.87
2019-02-27T23:45:15.533Z,8.93
2019-02-27T23:51:09.521Z,7.13
2019-02-27T23:53:38.460Z,7.70
2019-02-27T23:56:07.702Z,12.17
2019-02-27T23:58:46.812Z,10.30
